Time;durP1;ratioP1;P1;durP2;ratioP2;P2;SDS_P1;SDS_P2;PMS_P1;PMS_P2;Temp;Humidity;BMP_temperature;BMP_pressure;BME280_temperature;BME280_humidity;BME280_pressure;Samples;Min_cycle;Max_cycle;Signal;HPM_P1;HPM_P2
2021/01/14 00:02:05;;;;;;;33.63;17.63;;;;;;;2.26;66.39;99688.38;5117101;28;20524;-61
2021/01/14 00:04:30;;;;;;;29.42;16.17;;;;;;;2.45;65.89;99684.78;5116940;28;20023;-62
2021/01/14 00:06:58;;;;;;;29.50;16.20;;;;;;;2.58;65.25;99683.47;5112575;27;20411;-61
2021/01/14 00:09:24;;;;;;;31.73;18.27;;;;;;;2.66;65.21;99676.88;5116863;28;20026;-61
2021/01/14 00:11:49;;;;;;;28.30;15.80;;;;;;;2.80;64.29;99679.16;5116870;28;20100;-62
2021/01/14 00:14:15;;;;;;;29.00;16.20;;;;;;;2.82;63.77;99682.34;5115516;28;20398;-61
2021/01/14 00:16:40;;;;;;;28.40;15.63;;;;;;;2.83;63.78;99674.81;5116152;28;20024;-62
2021/01/14 00:19:06;;;;;;;26.10;14.98;;;;;;;2.87;63.34;99664.59;5116887;28;20076;-62
2021/01/14 00:21:37;;;;;;;26.80;14.57;;;;;;;2.90;63.99;99667.44;5116478;28;20307;-62
2021/01/14 00:24:03;;;;;;;24.60;14.35;;;;;;;2.93;63.33;99657.56;5115418;28;20020;-62
2021/01/14 00:26:28;;;;;;;24.75;14.45;;;;;;;2.90;63.75;99656.31;5116573;28;20034;-62
2021/01/14 00:28:53;;;;;;;27.35;14.77;;;;;;;2.86;63.62;99654.66;5109357;28;20024;-62
2021/01/14 00:31:20;;;;;;;28.13;15.50;;;;;;;2.81;64.02;99641.91;5115475;28;20062;-62
2021/01/14 00:33:46;;;;;;;28.00;14.63;;;;;;;2.71;64.27;99643.28;5116366;28;20102;-61
2021/01/14 00:36:11;;;;;;;24.50;14.00;;;;;;;2.72;64.47;99644.09;5116157;28;20123;-62
2021/01/14 00:38:36;;;;;;;26.48;14.82;;;;;;;2.72;64.16;99632.97;5115302;28;20288;-62
2021/01/14 00:41:02;;;;;;;26.38;13.77;;;;;;;2.69;63.63;99625.41;5116271;28;20011;-62
2021/01/14 00:43:31;;;;;;;24.63;13.57;;;;;;;2.58;64.08;99605.78;5116304;28;20051;-62
2021/01/14 00:45:56;;;;;;;31.70;15.43;;;;;;;2.59;64.31;99606.59;5115235;28;20027;-62
2021/01/14 00:48:22;;;;;;;27.60;14.93;;;;;;;2.52;64.67;99601.72;5116242;28;20031;-62
2021/01/14 00:50:49;;;;;;;22.13;12.68;;;;;;;2.54;64.63;99604.94;5116190;28;20026;-62
2021/01/14 00:53:14;;;;;;;23.15;13.63;;;;;;;2.50;64.63;99598.50;5115901;28;20065;-61
2021/01/14 00:55:39;;;;;;;24.67;14.63;;;;;;;2.50;64.76;99595.75;5116379;28;20027;-61
2021/01/14 00:58:05;;;;;;;24.65;13.48;;;;;;;2.49;64.77;99605.25;5115793;28;20023;-62
2021/01/14 01:00:30;;;;;;;24.73;13.90;;;;;;;2.58;64.64;99589.16;5115137;28;20031;-62
2021/01/14 01:02:55;;;;;;;23.55;13.48;;;;;;;2.60;64.35;99584.03;5115955;28;20023;-61
2021/01/14 01:05:21;;;;;;;26.58;14.40;;;;;;;2.61;64.11;99580.09;5116150;28;20035;-60
2021/01/14 01:07:58;;;;;;;30.63;14.32;;;;;;;2.56;64.09;99571.28;5115583;28;20030;-62
2021/01/14 01:10:24;;;;;;;28.55;13.70;;;;;;;2.57;64.95;99565.34;5115887;28;20102;-62
2021/01/14 01:12:54;;;;;;;23.15;13.68;;;;;;;2.54;64.80;99563.31;5115877;28;20102;-61
2021/01/14 01:15:20;;;;;;;25.85;13.48;;;;;;;2.56;65.13;99563.75;5115756;28;20028;-62
2021/01/14 01:17:45;;;;;;;26.20;14.25;;;;;;;2.56;64.65;99574.03;5115979;28;20038;-61
2021/01/14 01:20:11;;;;;;;23.55;13.00;;;;;;;2.58;64.75;99571.69;5115839;28;20098;-62
2021/01/14 01:22:37;;;;;;;28.85;13.88;;;;;;;2.61;64.75;99568.97;5115635;28;20036;-61
2021/01/14 01:25:03;;;;;;;23.77;13.27;;;;;;;2.56;64.70;99563.75;5114659;28;20020;-61
2021/01/14 01:27:29;;;;;;;23.15;12.63;;;;;;;2.58;64.84;99566.94;5115246;28;20016;-62
2021/01/14 01:29:54;;;;;;;27.73;14.65;;;;;;;2.61;65.02;99568.97;5119720;28;20042;-62
2021/01/14 01:32:19;;;;;;;22.65;11.98;;;;;;;2.65;64.77;99571.81;5119875;28;20438;-61
2021/01/14 01:34:45;;;;;;;24.73;12.38;;;;;;;2.65;64.72;99563.50;5119911;28;20059;-61
2021/01/14 01:37:10;;;;;;;24.63;13.07;;;;;;;2.83;64.16;99569.38;5118433;28;20076;-62
2021/01/14 01:39:35;;;;;;;21.20;12.45;;;;;;;2.92;64.00;99569.91;5119999;27;20144;-62
2021/01/14 01:42:01;;;;;;;20.23;11.35;;;;;;;2.94;63.78;99567.56;5119842;28;20037;-61
2021/01/14 01:44:26;;;;;;;24.70;12.52;;;;;;;2.86;63.93;99560.28;5119563;28;20384;-62
2021/01/14 01:46:55;;;;;;;21.65;12.20;;;;;;;2.71;64.31;99559.25;5119706;28;20023;-61
2021/01/14 01:49:22;;;;;;;20.80;11.55;;;;;;;2.68;64.80;99563.56;5119505;28;20023;-63
2021/01/14 01:51:48;;;;;;;20.25;12.18;;;;;;;2.62;64.45;99565.03;5119529;27;20096;-61
2021/01/14 01:54:13;;;;;;;21.85;12.18;;;;;;;2.57;64.89;99556.22;5119563;28;20096;-60
2021/01/14 01:56:39;;;;;;;20.58;12.07;;;;;;;2.50;65.18;99562.47;5119645;27;20062;-62
2021/01/14 01:59:04;;;;;;;20.73;11.57;;;;;;;2.43;65.29;99552.00;5119591;28;20024;-61
2021/01/14 02:01:29;;;;;;;19.77;11.90;;;;;;;2.43;65.26;99559.53;5119490;27;20015;-62
2021/01/14 02:03:55;;;;;;;21.33;12.68;;;;;;;2.39;65.67;99550.34;5119775;28;20024;-61
2021/01/14 02:06:21;;;;;;;19.80;12.10;;;;;;;2.34;65.71;99553.44;5104591;28;20433;-62
2021/01/14 02:09:02;;;;;;;19.70;11.90;;;;;;;2.26;66.37;99558.03;5119551;28;20042;-62
2021/01/14 02:11:32;;;;;;;22.50;12.25;;;;;;;2.21;66.14;99544.50;5119246;27;20288;-62
2021/01/14 02:14:18;;;;;;;23.77;13.18;;;;;;;2.17;66.78;99547.16;5118203;28;20030;-61
2021/01/14 02:16:45;;;;;;;23.58;12.02;;;;;;;2.16;66.49;99542.78;5118988;28;20016;-61
2021/01/14 02:19:16;;;;;;;20.15;11.57;;;;;;;2.13;66.88;99540.75;5118966;28;20027;-61
2021/01/14 02:21:45;;;;;;;28.70;14.15;;;;;;;2.15;67.07;99532.88;5118839;28;20022;-62
2021/01/14 02:24:33;;;;;;;36.75;16.17;;;;;;;2.17;67.02;99529.72;5119024;28;20042;-62
2021/01/14 02:27:00;;;;;;;28.48;13.90;;;;;;;2.16;66.74;99515.06;5118953;28;20296;-61
2021/01/14 02:29:25;;;;;;;28.05;13.77;;;;;;;2.15;66.64;99521.78;5118914;27;20027;-62
2021/01/14 02:31:51;;;;;;;34.67;14.40;;;;;;;2.12;67.10;99518.94;5118765;28;20027;-62
2021/01/14 02:34:16;;;;;;;30.85;14.32;;;;;;;2.07;67.57;99508.97;5118007;28;20354;-62
2021/01/14 02:36:41;;;;;;;33.95;13.85;;;;;;;2.05;67.54;99505.75;5117773;28;20054;-63
2021/01/14 02:39:06;;;;;;;22.73;12.10;;;;;;;2.01;67.79;99501.31;5116947;28;20058;-62
2021/01/14 02:41:32;;;;;;;24.52;12.63;;;;;;;1.98;67.87;99489.00;5108250;28;20103;-62
2021/01/14 02:43:57;;;;;;;22.35;11.50;;;;;;;1.94;67.58;99485.38;5117402;28;20406;-62
2021/01/14 02:46:23;;;;;;;22.00;11.00;;;;;;;1.91;67.95;99477.75;5117311;28;20035;-62
2021/01/14 02:49:09;;;;;;;19.38;11.00;;;;;;;1.86;68.09;99480.84;5117038;28;20027;-62
2021/01/14 02:51:49;;;;;;;19.50;11.25;;;;;;;1.84;68.52;99483.16;5117412;28;20027;-61
2021/01/14 02:54:16;;;;;;;22.25;12.20;;;;;;;1.79;68.42;99478.72;5117026;28;20072;-60
2021/01/14 02:56:44;;;;;;;22.13;12.05;;;;;;;1.76;68.27;99475.91;5117408;28;20310;-59
2021/01/14 02:59:09;;;;;;;20.95;12.00;;;;;;;1.74;68.87;99483.78;5116834;28;20414;-61
2021/01/14 03:01:35;;;;;;;21.20;11.80;;;;;;;1.74;69.27;99490.13;5117203;28;20037;-62
2021/01/14 03:04:01;;;;;;;22.77;12.43;;;;;;;1.76;69.30;99481.44;5116943;28;20073;-62
2021/01/14 03:06:26;;;;;;;25.40;13.75;;;;;;;1.75;69.43;99474.28;5117220;28;20023;-62
2021/01/14 03:08:51;;;;;;;24.05;13.32;;;;;;;1.77;69.37;99480.28;5117047;28;20026;-62
2021/01/14 03:11:27;;;;;;;25.58;12.88;;;;;;;1.75;69.25;99463.22;5117055;28;20108;-62
2021/01/14 03:13:54;;;;;;;40.65;20.95;;;;;;;1.72;69.15;99472.25;5115935;28;20058;-61
2021/01/14 03:16:19;;;;;;;50.55;22.60;;;;;;;1.68;69.46;99479.72;5116503;28;20067;-62
2021/01/14 03:18:44;;;;;;;46.78;20.13;;;;;;;1.67;69.36;99470.59;5116854;28;20023;-61
2021/01/14 03:21:10;;;;;;;34.03;15.50;;;;;;;1.67;69.30;99465.06;5116751;28;20178;-62
2021/01/14 03:23:35;;;;;;;34.63;17.05;;;;;;;1.67;69.47;99462.28;5116766;28;20050;-62
2021/01/14 03:26:00;;;;;;;27.55;14.25;;;;;;;1.68;69.40;99460.31;5116846;28;20367;-62
2021/01/14 03:28:26;;;;;;;27.27;14.25;;;;;;;1.69;69.56;99445.28;5115580;28;20015;-62
2021/01/14 03:30:53;;;;;;;32.53;17.20;;;;;;;1.69;69.24;99445.28;5117027;28;20035;-61
2021/01/14 03:33:18;;;;;;;28.23;15.57;;;;;;;1.69;69.44;99436.97;5115275;28;20019;-61
2021/01/14 03:35:44;;;;;;;30.52;15.73;;;;;;;1.69;69.23;99437.78;5094450;28;652608;-61
2021/01/14 03:38:09;;;;;;;32.15;15.25;;;;;;;1.67;69.00;99431.00;5103113;28;20044;-61
2021/01/14 03:40:34;;;;;;;31.85;16.23;;;;;;;1.60;69.47;99428.88;5117508;28;20008;-61
2021/01/14 03:43:00;;;;;;;26.58;14.18;;;;;;;1.57;69.22;99423.28;5117497;28;20019;-61
2021/01/14 03:45:25;;;;;;;25.42;13.63;;;;;;;1.54;69.47;99427.59;5103406;28;20351;-62
2021/01/14 03:47:50;;;;;;;28.17;13.90;;;;;;;1.52;69.57;99433.50;5117121;28;20039;-61
2021/01/14 03:50:15;;;;;;;30.08;15.60;;;;;;;1.52;69.78;99418.84;5116231;28;20027;-61
2021/01/14 03:52:41;;;;;;;29.92;15.85;;;;;;;1.47;70.05;99416.38;5117427;28;20031;-62
2021/01/14 03:55:07;;;;;;;31.63;16.58;;;;;;;1.43;70.32;99407.19;5116894;28;20042;-63
2021/01/14 03:57:36;;;;;;;27.33;15.48;;;;;;;1.38;70.40;99413.84;5117177;28;20024;-63
2021/01/14 04:00:04;;;;;;;30.48;15.13;;;;;;;1.37;70.40;99400.31;5117321;28;20055;-60
2021/01/14 04:02:32;;;;;;;30.90;16.70;;;;;;;1.37;70.15;99397.56;5116595;27;20023;-59
2021/01/14 04:04:57;;;;;;;35.13;17.33;;;;;;;1.36;70.33;99391.22;5117169;28;20019;-60
2021/01/14 04:07:23;;;;;;;35.05;18.40;;;;;;;1.35;70.75;99395.16;5116809;28;20057;-60
2021/01/14 04:09:48;;;;;;;33.90;15.85;;;;;;;1.35;70.87;99384.09;5116870;28;20407;-63
2021/01/14 04:12:13;;;;;;;36.15;17.92;;;;;;;1.35;70.82;99364.69;5116615;28;20138;-62
2021/01/14 04:14:39;;;;;;;28.92;15.73;;;;;;;1.35;71.10;99372.22;5116984;28;20023;-60
2021/01/14 04:17:04;;;;;;;23.50;14.23;;;;;;;1.39;70.75;99367.56;5116579;28;20319;-60
2021/01/14 04:19:29;;;;;;;25.25;14.35;;;;;;;1.41;70.57;99352.19;5116622;28;20026;-62
2021/01/14 04:21:55;;;;;;;25.67;14.27;;;;;;;1.44;70.31;99334.84;5116909;27;20027;-60
2021/01/14 04:24:20;;;;;;;23.83;13.63;;;;;;;1.46;70.37;99340.00;5116496;28;20077;-59
2021/01/14 04:26:48;;;;;;;19.70;12.15;;;;;;;1.44;69.79;99343.16;5116484;28;20434;-57
2021/01/14 04:29:13;;;;;;;21.88;12.02;;;;;;;1.44;69.99;99336.81;5116387;28;20415;-60
2021/01/14 04:31:40;;;;;;;29.40;13.95;;;;;;;1.44;69.92;99332.06;5116384;28;20030;-63
2021/01/14 04:34:05;;;;;;;29.60;14.43;;;;;;;1.43;69.90;99341.53;5116257;28;20026;-58
2021/01/14 04:36:31;;;;;;;31.63;14.65;;;;;;;1.43;69.82;99330.47;5116484;28;20110;-60
2021/01/14 04:38:57;;;;;;;21.00;12.50;;;;;;;1.46;69.73;99334.47;5116611;28;20099;-62
2021/01/14 04:41:23;;;;;;;27.00;13.32;;;;;;;1.49;69.72;99325.41;5112804;28;20026;-60
2021/01/14 04:43:50;;;;;;;23.63;12.48;;;;;;;1.50;69.80;99329.78;5102908;28;20035;-62
2021/01/14 04:46:16;;;;;;;21.17;12.23;;;;;;;1.49;69.82;99339.25;5104710;28;20035;-62
2021/01/14 04:48:48;;;;;;;21.95;12.60;;;;;;;1.49;69.64;99344.81;5115769;28;20038;-62
2021/01/14 04:51:17;;;;;;;25.08;13.65;;;;;;;1.45;69.60;99338.41;5108827;28;20099;-60
2021/01/14 04:53:44;;;;;;;23.85;13.02;;;;;;;1.43;70.09;99329.66;5102813;28;20023;-60
2021/01/14 04:56:12;;;;;;;22.48;12.45;;;;;;;1.42;70.25;99337.16;5103917;28;20028;-62
2021/01/14 04:58:39;;;;;;;25.25;14.32;;;;;;;1.43;70.29;99336.00;5101266;28;20447;-59
2021/01/14 05:01:25;;;;;;;22.77;12.18;;;;;;;1.44;70.30;99337.59;5107212;28;20019;-58
2021/01/14 05:03:53;;;;;;;21.65;12.23;;;;;;;1.43;70.14;99338.78;5104873;28;20040;-62
2021/01/14 05:06:23;;;;;;;26.77;13.20;;;;;;;1.45;70.12;99338.41;5104200;28;20425;-59
2021/01/14 05:08:50;;;;;;;24.92;12.70;;;;;;;1.47;70.09;99336.06;5098013;28;20032;-61
2021/01/14 05:11:18;;;;;;;21.45;11.45;;;;;;;1.49;69.77;99326.22;5102878;28;20311;-62
2021/01/14 05:13:45;;;;;;;18.55;10.68;;;;;;;1.52;69.58;99330.22;5102892;28;20039;-62
2021/01/14 05:16:14;;;;;;;26.63;12.10;;;;;;;1.56;69.35;99322.78;5098182;28;20024;-60
2021/01/14 05:18:40;;;;;;;25.73;12.10;;;;;;;1.66;69.80;99332.47;5108230;28;20322;-62
2021/01/14 05:21:05;;;;;;;18.40;9.40;;;;;;;1.67;69.29;99322.97;5106562;28;20020;-61
2021/01/14 05:23:31;;;;;;;19.20;9.10;;;;;;;1.72;69.01;99325.44;5102996;28;20053;-62
2021/01/14 05:25:58;;;;;;;14.55;8.20;;;;;;;1.80;68.57;99322.41;5110656;28;20020;-62
2021/01/14 05:28:25;;;;;;;19.25;9.57;;;;;;;1.92;68.71;99318.66;5113858;28;20015;-58
2021/01/14 05:30:55;;;;;;;15.18;8.82;;;;;;;2.01;68.08;99324.75;5105301;28;20119;-61
2021/01/14 05:33:22;;;;;;;72.65;30.25;;;;;;;2.15;67.74;99322.19;5099202;28;20051;-60
2021/01/14 05:35:53;;;;;;;111.43;46.90;;;;;;;2.26;67.27;99321.56;5104332;28;20460;-61
2021/01/14 05:38:32;;;;;;;102.43;49.95;;;;;;;2.34;66.82;99317.72;5102061;28;20032;-61
2021/01/14 05:41:18;;;;;;;21.38;14.18;;;;;;;2.48;66.17;99313.19;5100822;28;20028;-61
2021/01/14 05:43:58;;;;;;;20.45;11.80;;;;;;;2.60;65.91;99309.38;5097709;28;20031;-61
2021/01/14 05:46:25;;;;;;;13.90;9.45;;;;;;;2.60;65.23;99314.13;5099734;28;20426;-61
2021/01/14 05:48:53;;;;;;;31.42;19.73;;;;;;;2.63;65.46;99299.50;5099194;28;20027;-61
2021/01/14 05:51:26;;;;;;;18.25;10.57;;;;;;;2.59;65.24;99295.88;5101182;28;20534;-62
2021/01/14 05:54:14;;;;;;;17.50;10.55;;;;;;;2.52;65.68;99291.06;5097155;28;20039;-61
2021/01/14 05:56:47;;;;;;;14.13;8.88;;;;;;;2.42;65.77;99298.03;5109738;28;20054;-61
2021/01/14 05:59:17;;;;;;;15.82;9.68;;;;;;;2.35;66.29;99286.03;5101667;28;20031;-61
2021/01/14 06:01:57;;;;;;;15.88;8.88;;;;;;;2.37;66.17;99292.00;5111373;28;20023;-61
2021/01/14 06:04:28;;;;;;;14.68;8.88;;;;;;;2.31;65.95;99293.50;5102134;28;20015;-61
2021/01/14 06:07:02;;;;;;;15.57;8.93;;;;;;;2.30;66.17;99287.16;5110994;27;20031;-61
2021/01/14 06:09:27;;;;;;;19.73;10.75;;;;;;;2.27;66.33;99285.16;5102282;28;20263;-60
2021/01/14 06:12:10;;;;;;;21.02;11.93;;;;;;;2.23;66.00;99294.59;5111136;28;20031;-62
2021/01/14 06:14:35;;;;;;;27.55;14.50;;;;;;;2.16;66.11;99292.50;5104325;28;20074;-61
2021/01/14 06:17:06;;;;;;;24.60;13.15;;;;;;;2.21;66.68;99302.47;5115147;28;20035;-62
2021/01/14 06:19:32;;;;;;;20.92;11.82;;;;;;;2.27;66.68;99299.00;5104289;28;20035;-62
2021/01/14 06:21:58;;;;;;;29.88;15.00;;;;;;;2.35;66.26;99297.13;5116353;28;20024;-61
2021/01/14 06:24:27;;;;;;;50.65;22.83;;;;;;;2.45;66.22;99313.91;5114253;28;20414;-61
2021/01/14 06:26:55;;;;;;;42.83;21.35;;;;;;;2.46;65.95;99311.94;5116136;28;20451;-61
2021/01/14 06:29:24;;;;;;;39.67;18.80;;;;;;;2.41;65.76;99312.28;5113848;28;20028;-61
2021/01/14 06:31:49;;;;;;;51.08;25.42;;;;;;;2.33;66.08;99313.34;5116469;28;20024;-61
2021/01/14 06:34:18;;;;;;;46.75;23.85;;;;;;;2.25;66.53;99326.31;5113431;28;20024;-63
2021/01/14 06:36:46;;;;;;;51.30;29.50;;;;;;;2.15;66.55;99318.63;5116349;28;20102;-60
2021/01/14 06:39:14;;;;;;;36.88;20.02;;;;;;;2.16;67.18;99317.44;5114398;28;20080;-61
2021/01/14 06:41:40;;;;;;;30.40;18.02;;;;;;;2.09;67.20;99325.66;5115818;28;20028;-56
2021/01/14 06:44:09;;;;;;;40.30;22.63;;;;;;;1.99;67.54;99324.31;5115622;28;20028;-54
2021/01/14 06:46:35;;;;;;;48.60;26.85;;;;;;;1.92;67.82;99331.69;5114507;28;20043;-60
2021/01/14 06:49:11;;;;;;;32.50;18.77;;;;;;;1.87;68.40;99330.03;5115936;28;20319;-61
2021/01/14 06:52:08;;;;;;;33.50;17.95;;;;;;;1.86;69.04;99325.66;5118885;28;20053;-61
2021/01/14 06:54:38;;;;;;;32.60;19.42;;;;;;;1.86;68.91;99336.75;5108548;28;20019;-60
2021/01/14 06:57:15;;;;;;;41.03;22.15;;;;;;;1.88;69.18;99328.88;5118219;28;20023;-61
2021/01/14 06:59:41;;;;;;;34.10;18.10;;;;;;;1.85;69.11;99329.59;5118418;28;20011;-58
2021/01/14 07:02:06;;;;;;;36.40;19.77;;;;;;;1.87;69.18;99335.56;5118187;28;20428;-61
2021/01/14 07:04:43;;;;;;;33.30;18.85;;;;;;;1.90;69.25;99334.03;5118279;27;20054;-61
2021/01/14 07:07:27;;;;;;;28.98;16.38;;;;;;;1.86;68.98;99339.53;5118013;28;20751;-61
2021/01/14 07:10:04;;;;;;;28.65;15.30;;;;;;;1.99;69.56;99323.53;5117794;28;20328;-58
2021/01/14 07:12:32;;;;;;;26.20;15.77;;;;;;;2.06;70.07;99346.59;5118089;28;20031;-61
2021/01/14 07:15:07;;;;;;;27.52;15.80;;;;;;;2.09;71.03;99337.53;5118419;28;20027;-53
2021/01/14 07:17:36;;;;;;;29.45;16.38;;;;;;;2.09;71.24;99345.84;5118009;28;20441;-59
2021/01/14 07:20:05;;;;;;;26.40;15.60;;;;;;;2.08;70.94;99338.72;5118327;28;20038;-52
2021/01/14 07:22:31;;;;;;;29.35;15.82;;;;;;;2.01;71.59;99335.03;5117646;28;20024;-62
2021/01/14 07:25:02;;;;;;;29.17;16.23;;;;;;;1.97;71.95;99334.19;5117025;28;20038;-62
2021/01/14 07:27:28;;;;;;;32.75;17.10;;;;;;;1.98;72.05;99333.81;5117442;28;20115;-62
2021/01/14 07:29:56;;;;;;;36.15;20.88;;;;;;;1.89;72.22;99326.91;5117712;27;20422;-59
2021/01/14 07:33:04;;;;;;;35.90;20.25;;;;;;;1.77;73.33;99331.47;5117758;28;20466;-61
2021/01/14 07:35:34;;;;;;;36.78;20.50;;;;;;;1.80;73.88;99330.72;5116507;28;20309;-62
2021/01/14 07:37:59;;;;;;;53.13;27.08;;;;;;;1.75;73.92;99335.78;5117402;28;20023;-62
2021/01/14 07:40:29;;;;;;;45.63;24.13;;;;;;;1.69;74.43;99335.28;5117372;28;20095;-56
2021/01/14 07:42:56;;;;;;;39.00;21.77;;;;;;;1.67;74.95;99334.88;5117397;28;20020;-61
2021/01/14 07:45:22;;;;;;;37.40;21.40;;;;;;;1.65;75.39;99339.97;5117512;28;20099;-61
2021/01/14 07:47:47;;;;;;;38.88;21.52;;;;;;;1.63;75.53;99335.94;5117181;27;20051;-62
2021/01/14 07:50:19;;;;;;;42.83;23.10;;;;;;;1.60;75.86;99333.91;5117136;28;20024;-62
2021/01/14 07:52:45;;;;;;;;;;;;;;;1.66;75.85;99335.22;5117679;28;20027;-61
2021/01/14 07:55:10;;;;;;;39.28;21.40;;;;;;;1.71;75.29;99340.47;5117302;27;19908;-62
2021/01/14 07:57:49;;;;;;;46.03;24.08;;;;;;;1.84;75.35;99331.59;5117211;28;20020;-62
2021/01/14 08:00:22;;;;;;;50.50;26.13;;;;;;;1.92;74.58;99343.59;5117018;28;20043;-62
2021/01/14 08:03:13;;;;;;;54.95;27.70;;;;;;;2.00;74.71;99325.91;5117312;28;20095;-62
2021/01/14 08:05:56;;;;;;;51.28;25.30;;;;;;;2.00;74.39;99337.00;5116873;28;20103;-61
2021/01/14 08:08:24;;;;;;;55.33;28.35;;;;;;;2.08;74.64;99326.81;5115715;28;20058;-61
2021/01/14 08:11:09;;;;;;;51.47;29.30;;;;;;;2.16;74.50;99328.53;5116573;28;20027;-61
2021/01/14 08:14:17;;;;;;;51.17;27.08;;;;;;;2.33;74.02;99332.75;5117337;28;20023;-61
2021/01/14 08:16:54;;;;;;;47.90;25.50;;;;;;;2.47;73.91;99327.44;5084955;28;20024;-61
2021/01/14 08:19:20;;;;;;;44.40;23.05;;;;;;;2.44;73.15;99333.72;5094162;28;20024;-59
2021/01/14 08:21:58;;;;;;;44.13;25.30;;;;;;;2.40;73.11;99333.66;5105749;28;20422;-59
2021/01/14 08:24:42;;;;;;;39.00;23.10;;;;;;;2.46;73.63;99343.25;5116588;28;20102;-58
2021/01/14 08:27:12;;;;;;;33.70;21.20;;;;;;;2.46;73.09;99353.53;5116687;28;20068;-62
2021/01/14 08:30:14;;;;;;;37.35;22.70;;;;;;;2.38;72.87;99360.16;5115580;28;20015;-61
2021/01/14 08:32:45;;;;;;;41.53;23.75;;;;;;;2.35;73.82;99347.84;5108709;28;20093;-62
2021/01/14 08:35:16;;;;;;;40.57;24.37;;;;;;;2.39;73.85;99362.56;5115236;28;20043;-62
2021/01/14 08:37:48;;;;;;;42.05;23.95;;;;;;;2.35;73.45;99372.00;5116114;28;20096;-62
2021/01/14 08:40:33;;;;;;;;;;;;;;;2.32;73.78;99369.97;5116755;28;20019;-61
2021/01/14 08:43:09;;;;;;;44.22;22.77;;;;;;;2.30;73.63;99372.31;5115917;28;20260;-59
2021/01/14 08:45:42;;;;;;;41.00;25.23;;;;;;;2.29;74.34;99365.19;5116370;28;20011;-62
2021/01/14 08:48:12;;;;;;;40.13;22.83;;;;;;;2.35;73.73;99372.00;5116280;28;20051;-62
2021/01/14 08:50:50;;;;;;;34.05;21.00;;;;;;;2.39;73.71;99365.34;5115955;28;20411;-59
2021/01/14 08:53:19;;;;;;;37.17;21.20;;;;;;;2.35;73.72;99370.03;5116297;28;20426;-57
2021/01/14 08:56:09;;;;;;;37.35;20.52;;;;;;;2.38;73.86;99366.50;5115927;28;20023;-59
2021/01/14 08:58:36;;;;;;;31.63;18.95;;;;;;;2.39;73.23;99370.09;5116106;28;20072;-62
2021/01/14 09:01:02;;;;;;;35.65;20.27;;;;;;;2.46;73.48;99368.22;5116272;28;20102;-61
2021/01/14 09:03:28;;;;;;;37.95;21.83;;;;;;;2.50;73.67;99373.84;5114914;28;20047;-60
2021/01/14 09:05:54;;;;;;;33.25;18.98;;;;;;;2.64;73.41;99379.59;5115893;28;20375;-61
2021/01/14 09:08:20;;;;;;;36.53;19.20;;;;;;;2.65;73.07;99375.63;5116381;28;20042;-62
2021/01/14 09:10:51;;;;;;;34.45;18.25;;;;;;;2.65;73.22;99381.19;5115711;28;20011;-61
2021/01/14 09:13:19;;;;;;;30.60;17.17;;;;;;;2.73;73.20;99374.56;5116258;28;20034;-62
2021/01/14 09:15:44;;;;;;;34.90;19.63;;;;;;;2.77;73.47;99375.44;5115881;28;20020;-62
2021/01/14 09:18:10;;;;;;;41.58;22.48;;;;;;;2.96;73.94;99385.59;5116242;28;20292;-59
2021/01/14 09:20:36;;;;;;;56.88;31.08;;;;;;;3.19;73.42;99381.91;5115884;27;20031;-59
2021/01/14 09:23:19;;;;;;;42.63;23.75;;;;;;;3.46;72.64;99382.63;5116072;28;20031;-62
2021/01/14 09:25:46;;;;;;;28.90;15.40;;;;;;;3.69;71.63;99380.50;5115526;28;20152;-62
2021/01/14 09:28:12;;;;;;;26.98;15.70;;;;;;;4.00;70.90;99379.22;5115875;28;20420;-62
2021/01/14 09:30:38;;;;;;;20.98;11.88;;;;;;;4.30;70.58;99365.97;5116135;28;20268;-59
2021/01/14 09:33:05;;;;;;;17.88;10.27;;;;;;;4.51;68.19;99368.13;5115662;28;20049;-62
2021/01/14 09:35:30;;;;;;;22.25;9.90;;;;;;;4.76;68.92;99368.31;5115404;28;20059;-59
2021/01/14 09:37:55;;;;;;;15.63;10.07;;;;;;;4.97;66.08;99362.84;5115691;28;20466;-59
2021/01/14 09:40:21;;;;;;;23.85;10.02;;;;;;;5.16;66.68;99364.53;5115509;28;20026;-55
2021/01/14 09:42:51;;;;;;;14.80;8.02;;;;;;;5.36;65.50;99378.16;5115633;28;20023;-62
2021/01/14 09:45:18;;;;;;;17.52;8.55;;;;;;;5.51;64.72;99371.44;5115691;28;20015;-58
2021/01/14 09:47:51;;;;;;;11.48;7.90;;;;;;;5.46;63.94;99380.97;5115650;28;20024;-61
2021/01/14 09:50:18;;;;;;;16.23;9.30;;;;;;;5.55;63.34;99372.25;5118750;28;20034;-59
2021/01/14 09:52:44;;;;;;;12.43;8.25;;;;;;;5.58;63.07;99369.47;5119770;28;20023;-59
2021/01/14 09:55:13;;;;;;;12.25;8.02;;;;;;;5.66;63.44;99361.91;5119321;28;20026;-62
2021/01/14 09:57:46;;;;;;;16.83;8.57;;;;;;;5.74;63.19;99369.09;5120014;28;20027;-61
2021/01/14 10:00:21;;;;;;;18.27;7.68;;;;;;;5.80;62.24;99372.31;5119367;28;20024;-62
2021/01/14 10:02:50;;;;;;;15.45;8.63;;;;;;;5.78;61.85;99378.28;5119574;28;20027;-58
2021/01/14 10:05:19;;;;;;;13.93;6.03;;;;;;;5.76;61.17;99368.72;5119288;28;20027;-61
2021/01/14 10:07:49;;;;;;;22.42;8.20;;;;;;;5.80;61.88;99373.13;5119312;28;20093;-62
2021/01/14 10:10:15;;;;;;;14.02;8.57;;;;;;;5.88;61.26;99363.56;5119115;28;20024;-62
2021/01/14 10:12:40;;;;;;;12.75;7.40;;;;;;;5.72;60.09;99365.09;5119546;28;20023;-59
2021/01/14 10:15:11;;;;;;;11.15;7.20;;;;;;;5.54;60.68;99368.66;5119174;28;20023;-54
2021/01/14 10:17:38;;;;;;;17.20;9.57;;;;;;;5.46;59.73;99364.25;5118965;28;20483;-59
2021/01/14 10:20:05;;;;;;;7.22;5.32;;;;;;;5.46;61.49;99363.44;5119209;28;20042;-62
2021/01/14 10:22:31;;;;;;;29.20;12.80;;;;;;;5.47;60.44;99367.81;5118863;28;20023;-59
2021/01/14 10:25:08;;;;;;;56.83;26.20;;;;;;;5.52;60.65;99376.63;5119312;28;20135;-56
2021/01/14 10:27:34;;;;;;;24.92;12.20;;;;;;;5.57;60.83;99381.00;5119125;28;20057;-59
2021/01/14 10:30:16;;;;;;;16.80;6.93;;;;;;;5.66;60.25;99373.06;5117823;28;20031;-62
2021/01/14 10:32:41;;;;;;;14.00;5.22;;;;;;;5.59;59.52;99382.22;5118640;28;20130;-62
2021/01/14 10:35:07;;;;;;;14.52;4.55;;;;;;;5.58;59.84;99371.47;5118697;28;20486;-59
2021/01/14 10:37:35;;;;;;;10.75;4.88;;;;;;;5.52;60.15;99381.41;5118847;28;20318;-62
2021/01/14 10:40:16;;;;;;;11.65;4.78;;;;;;;5.51;59.92;99377.03;5118790;28;20027;-62
2021/01/14 10:42:47;;;;;;;10.98;4.90;;;;;;;5.54;59.69;99381.81;5118615;28;20438;-62
2021/01/14 10:45:13;;;;;;;9.40;4.13;;;;;;;5.57;60.06;99376.25;5118715;28;20027;-57
2021/01/14 10:47:40;;;;;;;6.50;3.90;;;;;;;5.69;59.21;99377.84;5118485;28;20115;-58
2021/01/14 10:50:26;;;;;;;8.20;3.90;;;;;;;5.76;58.76;99377.88;5118212;28;20027;-62
2021/01/14 10:53:04;;;;;;;9.50;3.88;;;;;;;5.72;57.98;99379.84;5118914;28;20066;-62
2021/01/14 10:55:33;;;;;;;5.63;3.78;;;;;;;5.69;57.45;99372.28;5118156;27;20020;-59
2021/01/14 10:58:00;;;;;;;5.45;3.03;;;;;;;5.59;57.98;99376.63;5118625;28;20020;-62
2021/01/14 11:00:34;;;;;;;7.15;4.28;;;;;;;5.53;58.50;99371.84;5117743;28;20064;-62
2021/01/14 11:03:04;;;;;;;8.63;4.93;;;;;;;5.53;58.52;99380.22;5118365;27;20036;-62
2021/01/14 11:05:48;;;;;;;9.65;4.38;;;;;;;5.52;58.52;99367.47;5118163;27;20434;-62
2021/01/14 11:08:16;;;;;;;8.10;4.78;;;;;;;5.56;58.85;99363.50;5118271;28;20030;-62
2021/01/14 11:10:43;;;;;;;5.10;3.58;;;;;;;5.58;57.21;99377.03;5117979;28;20058;-61
2021/01/14 11:13:10;;;;;;;5.57;3.83;;;;;;;5.60;57.90;99377.44;5118172;28;20024;-62
2021/01/14 11:15:36;;;;;;;4.95;3.10;;;;;;;5.67;56.94;99379.44;5117677;28;20462;-62
2021/01/14 11:18:03;;;;;;;7.00;3.63;;;;;;;5.67;56.76;99374.66;5118192;28;20038;-60
2021/01/14 11:20:29;;;;;;;20.08;12.02;;;;;;;5.60;56.20;99374.66;5117981;28;20050;-62
2021/01/14 11:22:55;;;;;;;20.38;11.50;;;;;;;5.74;57.37;99385.03;5118171;28;20059;-62
2021/01/14 11:25:21;;;;;;;22.88;12.57;;;;;;;5.84;57.20;99387.06;5117820;28;20024;-62
2021/01/14 11:27:46;;;;;;;40.13;17.63;;;;;;;5.90;57.42;99385.50;5117539;28;20027;-61
2021/01/14 11:30:12;;;;;;;64.35;27.05;;;;;;;6.04;57.19;99384.75;5116672;28;20065;-61
2021/01/14 11:32:37;;;;;;;32.70;15.63;;;;;;;6.17;56.47;99392.31;5117886;28;20411;-62
2021/01/14 11:35:03;;;;;;;29.60;14.82;;;;;;;6.41;56.12;99396.31;5117549;28;20050;-59
2021/01/14 11:37:28;;;;;;;30.27;15.63;;;;;;;6.54;55.10;99404.28;5117631;28;20419;-62